createdAt,value
2022-11-11T00:01:11.361Z,36.30
2022-11-11T00:03:38.172Z,36.40
2022-11-11T00:06:07.347Z,36.40
2022-11-11T00:08:34.332Z,36.40
2022-11-11T00:11:14.078Z,36.40
2022-11-11T00:13:42.016Z,36.40
2022-11-11T00:16:14.717Z,36.40
2022-11-11T00:19:01.391Z,36.40
2022-11-11T00:21:28.890Z,36.30
2022-11-11T00:24:14.109Z,36.30
2022-11-11T00:26:41.102Z,36.30
2022-11-11T00:29:08.050Z,36.30
2022-11-11T00:31:57.955Z,36.30
2022-11-11T00:34:24.868Z,36.30
2022-11-11T00:36:51.707Z,36.30
2022-11-11T00:39:18.507Z,36.30
2022-11-11T00:41:45.292Z,36.30
2022-11-11T00:44:12.089Z,36.40
2022-11-11T00:46:57.707Z,36.40
2022-11-11T00:49:42.993Z,36.40
2022-11-11T00:52:09.845Z,36.50
2022-11-11T00:54:36.615Z,36.40
2022-11-11T00:57:03.434Z,36.50
2022-11-11T00:59:30.315Z,36.40
2022-11-11T01:01:57.178Z,36.50
2022-11-11T01:04:24.063Z,36.60
2022-11-11T01:06:51.094Z,36.60
2022-11-11T01:09:18.070Z,36.70
2022-11-11T01:11:45.040Z,36.70
2022-11-11T01:14:11.833Z,36.80
2022-11-11T01:16:38.712Z,36.80
2022-11-11T01:19:05.568Z,36.90
2022-11-11T01:21:32.510Z,36.90
2022-11-11T01:23:59.747Z,36.90
2022-11-11T01:26:31.497Z,36.90
2022-11-11T01:28:59.219Z,37.00
2022-11-11T01:31:27.364Z,37.00
2022-11-11T01:33:54.252Z,37.00
2022-11-11T01:36:24.608Z,37.10
2022-11-11T01:38:54.315Z,37.10
2022-11-11T01:41:33.100Z,37.20
2022-11-11T01:44:00.205Z,37.20
2022-11-11T01:46:45.922Z,37.30
2022-11-11T01:49:22.012Z,37.30
2022-11-11T01:51:57.844Z,37.40
2022-11-11T01:54:40.087Z,37.40
2022-11-11T01:57:18.153Z,37.40
2022-11-11T01:59:48.432Z,37.50
2022-11-11T02:02:24.684Z,37.50
2022-11-11T02:05:10.867Z,37.50
2022-11-11T02:07:39.573Z,37.60
2022-11-11T02:10:08.918Z,37.50
2022-11-11T02:12:54.922Z,37.50
2022-11-11T02:15:21.902Z,37.60
2022-11-11T02:17:50.106Z,37.60
2022-11-11T02:20:25.310Z,37.70
2022-11-11T02:23:03.549Z,37.70
2022-11-11T02:25:32.874Z,37.70
2022-11-11T02:28:04.773Z,37.80
2022-11-11T02:30:31.656Z,37.90
2022-11-11T02:32:58.772Z,37.90
2022-11-11T02:35:37.448Z,38.00
2022-11-11T02:38:09.857Z,38.10
2022-11-11T02:41:04.122Z,38.10
2022-11-11T02:43:32.496Z,38.30
2022-11-11T02:46:01.249Z,39.10
2022-11-11T02:48:28.585Z,38.50
2022-11-11T02:50:55.832Z,38.50
2022-11-11T02:53:24.057Z,38.50
2022-11-11T02:55:51.159Z,38.50
2022-11-11T02:58:18.171Z,38.40
2022-11-11T03:00:46.342Z,38.30
2022-11-11T03:03:14.537Z,38.20
2022-11-11T03:05:41.455Z,38.10
2022-11-11T03:08:08.786Z,38.00
2022-11-11T03:10:35.805Z,37.90
2022-11-11T03:13:04.882Z,38.40
2022-11-11T03:15:31.732Z,37.70
2022-11-11T03:17:58.704Z,37.50
2022-11-11T03:20:43.918Z,37.50
2022-11-11T03:23:15.820Z,37.50
2022-11-11T03:25:47.813Z,37.50
2022-11-11T03:28:20.121Z,37.50
2022-11-11T03:30:50.514Z,37.60
2022-11-11T03:33:18.994Z,37.60
2022-11-11T03:35:48.979Z,37.60
2022-11-11T03:38:15.930Z,37.70
2022-11-11T03:40:44.435Z,37.70
2022-11-11T03:43:16.110Z,37.60
2022-11-11T03:45:44.135Z,37.60
2022-11-11T03:48:11.644Z,37.50
2022-11-11T03:50:38.939Z,37.50
2022-11-11T03:53:07.411Z,37.40
2022-11-11T03:55:34.600Z,37.30
2022-11-11T03:58:01.517Z,37.30
2022-11-11T04:00:29.719Z,37.30
2022-11-11T04:03:22.527Z,37.30
2022-11-11T04:06:21.846Z,37.30
2022-11-11T04:09:07.568Z,37.40
2022-11-11T04:11:40.740Z,37.40
2022-11-11T04:14:29.001Z,37.50
2022-11-11T04:16:56.000Z,37.60
2022-11-11T04:19:41.496Z,37.60
2022-11-11T04:22:08.505Z,37.70
2022-11-11T04:24:53.593Z,37.70
2022-11-11T04:27:20.488Z,37.80
2022-11-11T04:29:47.966Z,37.70
2022-11-11T04:32:35.678Z,37.70
2022-11-11T04:35:13.565Z,37.60
2022-11-11T04:37:50.103Z,37.50
2022-11-11T04:40:36.537Z,37.50
2022-11-11T04:43:03.659Z,37.50
2022-11-11T04:45:35.922Z,37.60
2022-11-11T04:48:10.800Z,37.50
2022-11-11T04:50:39.910Z,37.60
2022-11-11T04:53:10.279Z,38.30
2022-11-11T04:55:56.356Z,37.60
2022-11-11T04:58:25.427Z,37.60
2022-11-11T05:00:52.444Z,37.60
2022-11-11T05:03:21.942Z,37.50
2022-11-11T05:06:09.533Z,37.50
2022-11-11T05:08:56.510Z,37.40
2022-11-11T05:11:25.947Z,37.50
2022-11-11T05:14:12.592Z,37.40
2022-11-11T05:17:08.701Z,37.40
2022-11-11T05:19:54.568Z,37.40
2022-11-11T05:22:33.243Z,37.40
2022-11-11T05:25:18.678Z,37.30
2022-11-11T05:27:45.592Z,37.40
2022-11-11T05:30:14.509Z,37.50
2022-11-11T05:32:41.918Z,38.40
2022-11-11T05:35:09.928Z,37.80
2022-11-11T05:37:36.793Z,37.90
2022-11-11T05:40:04.312Z,37.90
2022-11-11T05:42:31.343Z,37.90
2022-11-11T05:44:58.389Z,38.00
2022-11-11T05:47:25.328Z,37.90
2022-11-11T05:49:52.092Z,37.90
2022-11-11T05:52:19.616Z,37.80
2022-11-11T05:54:46.714Z,37.80
2022-11-11T05:57:13.544Z,37.70
2022-11-11T05:59:40.315Z,37.60
2022-11-11T06:02:07.203Z,37.60
2022-11-11T06:04:35.398Z,37.50
2022-11-11T06:07:02.474Z,37.60
2022-11-11T06:09:29.527Z,37.60
2022-11-11T06:11:56.336Z,37.70
2022-11-11T06:14:23.091Z,37.80
2022-11-11T06:16:49.894Z,37.90
2022-11-11T06:19:16.644Z,37.90
2022-11-11T06:21:58.739Z,38.00
2022-11-11T06:24:26.868Z,38.00
2022-11-11T06:26:55.399Z,38.10
2022-11-11T06:29:23.107Z,38.00
2022-11-11T06:31:49.866Z,38.00
2022-11-11T06:34:17.055Z,37.90
2022-11-11T06:36:43.955Z,37.80
2022-11-11T06:39:10.783Z,37.70
2022-11-11T06:41:37.614Z,37.70
2022-11-11T06:44:04.561Z,37.70
2022-11-11T06:46:31.509Z,37.70
2022-11-11T06:48:58.438Z,37.70
2022-11-11T06:51:25.244Z,37.80
2022-11-11T06:53:52.395Z,37.80
2022-11-11T06:56:19.156Z,37.90
2022-11-11T06:58:46.208Z,38.00
2022-11-11T07:01:13.885Z,38.10
2022-11-11T07:03:41.168Z,38.20
2022-11-11T07:06:07.987Z,38.20
2022-11-11T07:08:34.845Z,38.10
2022-11-11T07:11:11.197Z,38.10
2022-11-11T07:13:39.593Z,38.00
2022-11-11T07:16:06.682Z,38.60
2022-11-11T07:18:33.539Z,38.00
2022-11-11T07:21:00.463Z,38.00
2022-11-11T07:23:27.239Z,37.90
2022-11-11T07:25:54.000Z,37.90
2022-11-11T07:28:20.850Z,37.90
2022-11-11T07:30:47.621Z,37.90
2022-11-11T07:33:14.360Z,37.90
2022-11-11T07:35:41.111Z,38.00
2022-11-11T07:38:07.870Z,38.10
2022-11-11T07:40:34.728Z,38.80
2022-11-11T07:43:01.485Z,38.20
2022-11-11T07:45:28.347Z,38.20
2022-11-11T07:47:55.175Z,38.20
2022-11-11T07:50:22.007Z,38.20
2022-11-11T07:52:49.621Z,38.10
2022-11-11T07:55:16.530Z,38.00
2022-11-11T07:57:43.348Z,38.00
2022-11-11T08:00:10.868Z,38.00
2022-11-11T08:02:37.689Z,38.00
2022-11-11T08:05:04.760Z,37.90
2022-11-11T08:07:33.649Z,37.90
2022-11-11T08:10:00.401Z,37.90
2022-11-11T08:12:45.824Z,37.90
2022-11-11T08:15:12.651Z,37.90
2022-11-11T08:17:40.249Z,38.00
2022-11-11T08:20:09.164Z,38.10
2022-11-11T08:22:39.846Z,38.10
2022-11-11T08:25:14.435Z,38.30
2022-11-11T08:27:42.245Z,38.40
2022-11-11T08:30:09.985Z,38.50
2022-11-11T08:32:37.915Z,38.50
2022-11-11T08:35:05.147Z,38.60
2022-11-11T08:37:31.943Z,38.60
2022-11-11T08:39:58.760Z,38.60
2022-11-11T08:42:25.544Z,38.70
2022-11-11T08:44:52.470Z,38.70
2022-11-11T08:47:20.672Z,38.70
2022-11-11T08:49:49.431Z,38.70
2022-11-11T08:52:16.580Z,38.70
2022-11-11T08:54:48.745Z,38.70
2022-11-11T08:57:15.540Z,38.70
2022-11-11T08:59:42.378Z,38.70
2022-11-11T09:02:13.159Z,38.80
2022-11-11T09:04:45.545Z,38.80
2022-11-11T09:07:13.357Z,38.90
2022-11-11T09:09:40.739Z,39.00
2022-11-11T09:12:07.691Z,39.10
2022-11-11T09:14:34.463Z,39.30
2022-11-11T09:17:01.253Z,39.30
2022-11-11T09:19:28.116Z,39.30
2022-11-11T09:21:55.043Z,39.40
2022-11-11T09:24:21.804Z,39.30
2022-11-11T09:26:49.960Z,39.30
2022-11-11T09:29:18.611Z,39.40
2022-11-11T09:31:46.567Z,39.30
2022-11-11T09:34:14.685Z,39.30
2022-11-11T09:36:42.146Z,39.30
2022-11-11T09:39:09.211Z,39.30
2022-11-11T09:41:36.033Z,39.40
2022-11-11T09:44:03.749Z,39.40
2022-11-11T09:46:58.661Z,39.40
2022-11-11T09:49:51.157Z,39.50
2022-11-11T09:52:20.708Z,39.40
2022-11-11T09:54:50.292Z,39.40
2022-11-11T09:58:01.144Z,39.40
2022-11-11T10:00:40.416Z,39.40
2022-11-11T10:03:16.507Z,39.20
2022-11-11T10:05:57.221Z,39.20
2022-11-11T10:08:29.548Z,39.10
2022-11-11T10:11:00.015Z,39.20
2022-11-11T10:13:32.808Z,39.10
2022-11-11T10:16:21.201Z,39.10
2022-11-11T10:18:50.843Z,39.20
2022-11-11T10:22:11.288Z,39.20
2022-11-11T10:24:50.658Z,39.10
2022-11-11T10:27:20.661Z,39.20
2022-11-11T10:29:49.215Z,39.10
2022-11-11T10:32:34.921Z,39.00
2022-11-11T10:35:23.099Z,39.70
2022-11-11T10:38:01.418Z,38.90
2022-11-11T10:40:37.574Z,38.90
2022-11-11T10:43:04.334Z,38.90
2022-11-11T10:45:51.064Z,39.10
2022-11-11T10:48:43.260Z,39.00
2022-11-11T10:51:12.878Z,39.00
2022-11-11T10:54:02.233Z,39.10
2022-11-11T10:56:37.936Z,39.10
2022-11-11T10:59:24.088Z,39.10
2022-11-11T11:02:01.841Z,39.20
2022-11-11T11:05:03.513Z,39.30
2022-11-11T11:07:40.562Z,39.30
2022-11-11T11:10:24.652Z,39.40
2022-11-11T11:13:19.390Z,39.50
2022-11-11T11:15:54.086Z,39.60
2022-11-11T11:18:21.040Z,39.70
2022-11-11T11:21:02.620Z,39.70
2022-11-11T11:23:46.840Z,39.80
2022-11-11T11:26:15.230Z,39.80
2022-11-11T11:28:59.785Z,39.80
2022-11-11T11:31:37.875Z,39.80
2022-11-11T11:34:05.371Z,39.80
2022-11-11T11:36:32.348Z,39.80
2022-11-11T11:39:02.238Z,39.80
2022-11-11T11:41:44.018Z,39.80
2022-11-11T11:44:27.772Z,39.90
2022-11-11T11:47:06.320Z,39.90
2022-11-11T11:49:52.630Z,39.90
2022-11-11T11:53:00.843Z,39.90
2022-11-11T11:55:42.481Z,39.80
2022-11-11T11:58:41.350Z,39.80
2022-11-11T12:01:24.459Z,39.70
2022-11-11T12:04:02.392Z,39.60
2022-11-11T12:06:29.680Z,39.60
2022-11-11T12:09:29.418Z,39.50
2022-11-11T12:11:59.291Z,39.50
2022-11-11T12:14:44.678Z,39.50
2022-11-11T12:17:19.223Z,39.60
2022-11-11T12:20:14.242Z,39.70
2022-11-11T12:22:47.150Z,39.80
2022-11-11T12:25:50.123Z,39.80
2022-11-11T12:28:27.745Z,39.90
2022-11-11T12:31:25.724Z,40.00
2022-11-11T12:33:58.294Z,40.00
2022-11-11T12:36:53.340Z,40.00
2022-11-11T12:39:54.026Z,40.00
2022-11-11T12:42:33.202Z,40.00
2022-11-11T12:45:07.517Z,39.90
2022-11-11T12:48:06.293Z,39.90
2022-11-11T12:50:54.859Z,39.80
2022-11-11T12:53:43.219Z,39.70
2022-11-11T12:56:28.509Z,39.70
2022-11-11T12:59:05.969Z,40.50
2022-11-11T13:01:51.392Z,39.70
2022-11-11T13:04:41.407Z,39.80
2022-11-11T13:07:23.286Z,39.80
2022-11-11T13:09:58.772Z,39.90
2022-11-11T13:12:48.122Z,40.00
2022-11-11T13:15:21.635Z,40.10
2022-11-11T13:17:48.716Z,40.10
2022-11-11T13:21:07.167Z,40.30
2022-11-11T13:23:33.824Z,40.40
2022-11-11T13:26:06.221Z,40.50
2022-11-11T13:28:38.751Z,40.60
2022-11-11T13:31:26.046Z,40.60
2022-11-11T13:33:56.763Z,40.50
2022-11-11T13:36:27.727Z,40.60
2022-11-11T13:39:01.580Z,40.60
2022-11-11T13:41:42.919Z,40.50
2022-11-11T13:44:17.136Z,40.50
2022-11-11T13:46:49.756Z,40.40
2022-11-11T13:49:23.353Z,40.40
2022-11-11T13:52:01.568Z,40.30
2022-11-11T13:54:39.831Z,40.30
2022-11-11T13:57:18.994Z,40.20
2022-11-11T14:00:00.653Z,40.20
2022-11-11T14:02:34.858Z,40.20
2022-11-11T14:05:08.220Z,40.20
2022-11-11T14:07:43.904Z,40.30
2022-11-11T14:10:34.301Z,40.30
2022-11-11T14:13:23.912Z,40.50
2022-11-11T14:15:54.757Z,40.60
2022-11-11T14:18:24.635Z,40.70
2022-11-11T14:20:53.028Z,40.80
2022-11-11T14:23:43.003Z,40.80
2022-11-11T14:26:10.984Z,40.80
2022-11-11T14:28:57.424Z,40.80
2022-11-11T14:31:24.207Z,40.80
2022-11-11T14:34:08.087Z,40.80
2022-11-11T14:36:34.950Z,40.80
2022-11-11T14:39:19.739Z,40.70
2022-11-11T14:41:54.764Z,40.70
2022-11-11T14:44:27.773Z,40.70
2022-11-11T14:47:03.946Z,40.60
2022-11-11T14:49:55.892Z,40.50
2022-11-11T14:52:40.092Z,41.20
2022-11-11T14:55:27.366Z,40.60
2022-11-11T14:58:09.251Z,40.60
2022-11-11T15:00:52.535Z,40.70
2022-11-11T15:03:53.311Z,40.70
2022-11-11T15:06:29.473Z,41.40
2022-11-11T15:09:14.067Z,40.90
2022-11-11T15:12:22.764Z,41.10
2022-11-11T15:15:14.687Z,41.20
2022-11-11T15:17:49.441Z,41.30
2022-11-11T15:20:42.179Z,41.40
2022-11-11T15:23:33.395Z,41.30
2022-11-11T15:26:15.282Z,41.20
2022-11-11T15:29:01.742Z,41.10
2022-11-11T15:31:47.150Z,41.00
2022-11-11T15:34:23.689Z,41.00
2022-11-11T15:37:03.614Z,40.90
2022-11-11T15:39:42.601Z,40.80
2022-11-11T15:42:37.428Z,40.70
2022-11-11T15:45:21.482Z,40.70
2022-11-11T15:47:50.774Z,40.80
2022-11-11T15:50:23.733Z,40.90
2022-11-11T15:52:55.789Z,40.90
2022-11-11T15:55:28.292Z,41.00
2022-11-11T15:57:55.068Z,41.10
2022-11-11T16:00:24.903Z,41.20
2022-11-11T16:02:53.901Z,41.30
2022-11-11T16:05:23.683Z,41.30
2022-11-11T16:07:57.635Z,41.20
2022-11-11T16:10:35.313Z,41.20
2022-11-11T16:13:37.233Z,41.10
2022-11-11T16:16:10.761Z,41.10
2022-11-11T16:19:18.658Z,41.10
2022-11-11T16:22:10.736Z,41.00
2022-11-11T16:24:40.971Z,40.90
2022-11-11T16:27:08.670Z,40.90
2022-11-11T16:29:40.706Z,40.80
2022-11-11T16:32:33.217Z,40.90
2022-11-11T16:35:00.916Z,40.80
2022-11-11T16:37:27.865Z,40.80
2022-11-11T16:39:54.726Z,40.90
2022-11-11T16:42:23.780Z,41.00
2022-11-11T16:44:53.363Z,41.00
2022-11-11T16:47:35.216Z,41.20
2022-11-11T16:50:12.623Z,41.20
2022-11-11T16:52:45.370Z,41.30
2022-11-11T16:55:31.773Z,41.50
2022-11-11T16:58:17.802Z,41.50
2022-11-11T17:00:44.927Z,41.60
2022-11-11T17:03:17.003Z,41.60
2022-11-11T17:06:01.461Z,41.50
2022-11-11T17:08:40.861Z,41.40
2022-11-11T17:11:31.893Z,41.30
2022-11-11T17:13:58.642Z,41.90
2022-11-11T17:16:25.532Z,41.20
2022-11-11T17:18:52.390Z,41.10
2022-11-11T17:21:19.126Z,41.00
2022-11-11T17:23:46.230Z,40.90
2022-11-11T17:26:17.537Z,40.90
2022-11-11T17:28:44.365Z,40.80
2022-11-11T17:31:12.945Z,40.80
2022-11-11T17:33:42.752Z,40.80
2022-11-11T17:36:13.302Z,40.80
2022-11-11T17:38:40.064Z,40.90
2022-11-11T17:41:07.182Z,40.90
2022-11-11T17:43:34.037Z,40.90
2022-11-11T17:46:02.589Z,41.00
2022-11-11T17:48:29.772Z,41.00
2022-11-11T17:50:56.958Z,41.00
2022-11-11T17:53:24.088Z,41.10
2022-11-11T17:55:51.270Z,41.00
2022-11-11T17:58:19.287Z,40.90
2022-11-11T18:00:46.855Z,40.70
2022-11-11T18:03:13.699Z,40.60
2022-11-11T18:05:40.469Z,40.50
2022-11-11T18:08:07.202Z,40.40
2022-11-11T18:10:34.129Z,40.30
2022-11-11T18:13:00.893Z,40.30
2022-11-11T18:15:27.688Z,40.20
2022-11-11T18:17:54.559Z,40.20
2022-11-11T18:20:21.311Z,40.20
2022-11-11T18:22:48.139Z,40.20
2022-11-11T18:25:14.966Z,40.20
2022-11-11T18:27:41.707Z,40.30
2022-11-11T18:30:09.310Z,40.30
2022-11-11T18:32:36.050Z,40.30
2022-11-11T18:35:02.870Z,40.30
2022-11-11T18:37:30.051Z,40.30
2022-11-11T18:39:56.916Z,40.40
2022-11-11T18:42:23.671Z,40.40
2022-11-11T18:44:50.400Z,40.40
2022-11-11T18:47:17.408Z,40.40
2022-11-11T18:49:44.155Z,40.40
2022-11-11T18:52:11.076Z,40.40
2022-11-11T18:54:37.960Z,40.20
2022-11-11T18:57:04.868Z,40.30
2022-11-11T18:59:31.652Z,40.20
2022-11-11T19:01:58.549Z,40.10
2022-11-11T19:04:25.444Z,40.00
2022-11-11T19:06:52.405Z,40.00
2022-11-11T19:09:19.205Z,39.90
2022-11-11T19:11:47.256Z,39.80
2022-11-11T19:14:19.971Z,39.80
2022-11-11T19:16:48.577Z,39.70
2022-11-11T19:19:18.112Z,39.70
2022-11-11T19:21:44.893Z,39.70
2022-11-11T19:24:11.948Z,39.80
2022-11-11T19:26:38.812Z,39.80
2022-11-11T19:29:06.080Z,39.90
2022-11-11T19:31:33.024Z,39.90
2022-11-11T19:34:00.017Z,40.00
2022-11-11T19:36:29.175Z,40.00
2022-11-11T19:38:59.454Z,40.10
2022-11-11T19:41:28.474Z,40.10
2022-11-11T19:43:56.581Z,40.10
2022-11-11T19:46:27.911Z,40.10
2022-11-11T19:48:57.319Z,40.00
2022-11-11T19:51:26.480Z,40.00
2022-11-11T19:53:56.580Z,40.00
2022-11-11T19:56:25.227Z,40.00
2022-11-11T19:58:52.876Z,39.90
2022-11-11T20:01:22.820Z,39.90
2022-11-11T20:03:51.121Z,39.80
2022-11-11T20:06:28.349Z,39.80
2022-11-11T20:08:57.603Z,40.50
2022-11-11T20:11:25.670Z,39.80
2022-11-11T20:13:53.012Z,39.80
2022-11-11T20:16:19.934Z,39.80
2022-11-11T20:18:46.939Z,39.90
2022-11-11T20:21:13.998Z,40.00
2022-11-11T20:23:42.206Z,40.10
2022-11-11T20:26:13.217Z,40.20
2022-11-11T20:28:40.824Z,40.30
2022-11-11T20:31:08.747Z,40.30
2022-11-11T20:33:35.580Z,40.40
2022-11-11T20:36:04.320Z,40.40
2022-11-11T20:38:31.656Z,40.50
2022-11-11T20:41:06.139Z,40.50
2022-11-11T20:43:34.382Z,40.60
2022-11-11T20:46:06.496Z,40.50
2022-11-11T20:48:34.532Z,40.50
2022-11-11T20:51:10.078Z,40.60
2022-11-11T20:53:37.496Z,40.50
2022-11-11T20:56:09.336Z,40.50
2022-11-11T20:58:37.684Z,40.50
2022-11-11T21:01:12.859Z,40.40
2022-11-11T21:03:40.774Z,40.40
2022-11-11T21:06:10.660Z,40.30
2022-11-11T21:08:39.449Z,40.40
2022-11-11T21:11:08.054Z,40.30
2022-11-11T21:13:38.336Z,40.40
2022-11-11T21:16:17.372Z,40.30
2022-11-11T21:18:45.947Z,40.30
2022-11-11T21:21:18.395Z,40.30
2022-11-11T21:23:46.257Z,40.20
2022-11-11T21:26:18.605Z,40.20
2022-11-11T21:28:46.179Z,40.20
2022-11-11T21:31:20.187Z,40.20
2022-11-11T21:34:04.538Z,40.20
2022-11-11T21:36:34.465Z,40.10
2022-11-11T21:39:02.150Z,40.10
2022-11-11T21:41:31.480Z,40.10
2022-11-11T21:43:58.998Z,40.10
2022-11-11T21:46:27.209Z,40.10
2022-11-11T21:48:55.173Z,40.00
2022-11-11T21:51:24.975Z,40.00
2022-11-11T21:54:02.135Z,40.00
2022-11-11T21:56:32.073Z,40.00
2022-11-11T21:59:01.327Z,40.00
2022-11-11T22:01:34.921Z,40.00
2022-11-11T22:04:04.546Z,40.10
2022-11-11T22:06:31.956Z,40.10
2022-11-11T22:08:59.700Z,40.10
2022-11-11T22:11:28.745Z,40.10
2022-11-11T22:13:55.869Z,40.10
2022-11-11T22:16:28.597Z,40.20
2022-11-11T22:18:58.832Z,40.20
2022-11-11T22:21:28.600Z,40.20
2022-11-11T22:24:04.505Z,40.30
2022-11-11T22:26:33.576Z,40.30
2022-11-11T22:29:00.896Z,40.30
2022-11-11T22:31:30.020Z,40.40
2022-11-11T22:34:06.015Z,40.40
2022-11-11T22:36:34.825Z,41.20
2022-11-11T22:39:01.789Z,40.40
2022-11-11T22:41:32.458Z,40.40
2022-11-11T22:44:00.963Z,40.40
2022-11-11T22:46:30.368Z,40.50
2022-11-11T22:49:02.311Z,40.40
2022-11-11T22:51:31.047Z,40.50
2022-11-11T22:54:21.614Z,40.50
2022-11-11T22:56:48.929Z,40.50
2022-11-11T22:59:15.880Z,40.60
2022-11-11T23:01:42.781Z,40.50
2022-11-11T23:04:12.323Z,40.50
2022-11-11T23:06:41.201Z,40.50
2022-11-11T23:09:10.087Z,40.50
2022-11-11T23:11:40.391Z,40.40
2022-11-11T23:14:12.744Z,40.50
2022-11-11T23:16:39.767Z,40.40
2022-11-11T23:19:08.273Z,40.80
2022-11-11T23:21:35.525Z,40.30
2022-11-11T23:24:02.316Z,40.30
2022-11-11T23:26:31.771Z,40.30
2022-11-11T23:28:59.038Z,40.20
2022-11-11T23:31:28.699Z,40.20
2022-11-11T23:33:57.631Z,40.20
2022-11-11T23:36:25.966Z,40.20
2022-11-11T23:38:52.798Z,40.20
2022-11-11T23:41:19.887Z,40.10
2022-11-11T23:43:46.967Z,40.20
2022-11-11T23:46:13.765Z,40.20
2022-11-11T23:48:41.070Z,40.20
2022-11-11T23:51:08.281Z,40.20
2022-11-11T23:53:35.159Z,40.20
2022-11-11T23:56:02.661Z,40.20
2022-11-11T23:58:30.308Z,40.20
